createdAt,value
2022-09-15T00:01:33.289Z,18.09
2022-09-15T00:03:59.918Z,18.10
2022-09-15T00:06:26.591Z,17.98
2022-09-15T00:08:53.727Z,18.17
2022-09-15T00:11:25.783Z,18.19
2022-09-15T00:13:53.512Z,18.09
2022-09-15T00:16:21.908Z,18.16
2022-09-15T00:18:48.950Z,18.19
2022-09-15T00:21:19.440Z,18.22
2022-09-15T00:23:46.929Z,18.22
2022-09-15T00:26:16.244Z,18.19
2022-09-15T00:28:43.290Z,18.17
2022-09-15T00:31:13.724Z,18.12
2022-09-15T00:33:40.412Z,18.03
2022-09-15T00:36:10.003Z,17.99
2022-09-15T00:38:37.329Z,17.94
2022-09-15T00:41:05.206Z,18.00
2022-09-15T00:44:02.436Z,17.86
2022-09-15T00:46:37.328Z,17.76
2022-09-15T00:49:21.761Z,17.87
2022-09-15T00:51:56.285Z,17.91
2022-09-15T00:54:30.790Z,17.93
2022-09-15T00:57:00.796Z,17.95
2022-09-15T00:59:29.661Z,18.01
2022-09-15T01:02:08.941Z,17.93
2022-09-15T01:04:35.589Z,17.92
2022-09-15T01:07:04.074Z,17.94
2022-09-15T01:09:38.432Z,17.93
2022-09-15T01:12:05.409Z,17.86
2022-09-15T01:14:32.099Z,17.78
2022-09-15T01:17:24.246Z,17.80
2022-09-15T01:20:11.837Z,17.82
2022-09-15T01:22:51.411Z,17.79
2022-09-15T01:25:33.229Z,17.76
2022-09-15T01:28:24.473Z,17.77
2022-09-15T01:31:17.193Z,17.74
2022-09-15T01:33:50.818Z,17.65
2022-09-15T01:36:23.702Z,17.59
2022-09-15T01:39:01.046Z,17.56
2022-09-15T01:41:31.705Z,17.50
2022-09-15T01:44:07.491Z,17.51
2022-09-15T01:46:38.099Z,17.46
2022-09-15T01:49:06.915Z,17.38
2022-09-15T01:51:34.270Z,17.35
2022-09-15T01:54:03.342Z,17.29
2022-09-15T01:56:29.991Z,17.27
2022-09-15T01:58:56.609Z,17.24
2022-09-15T02:01:42.297Z,17.19
2022-09-15T02:04:16.274Z,17.14
2022-09-15T02:06:53.386Z,17.10
2022-09-15T02:09:27.677Z,17.05
2022-09-15T02:12:09.004Z,17.01
2022-09-15T02:14:39.156Z,16.97
2022-09-15T02:17:05.905Z,16.97
2022-09-15T02:19:36.612Z,16.92
2022-09-15T02:22:11.210Z,16.94
2022-09-15T02:25:03.791Z,16.95
2022-09-15T02:27:34.274Z,16.89
2022-09-15T02:30:06.940Z,16.89
2022-09-15T02:32:35.208Z,16.83
2022-09-15T02:35:06.800Z,16.81
2022-09-15T02:37:35.160Z,16.74
2022-09-15T02:40:02.204Z,16.70
2022-09-15T02:42:31.132Z,16.75
2022-09-15T02:44:58.637Z,16.62
2022-09-15T02:47:25.745Z,16.62
2022-09-15T02:49:52.953Z,16.68
2022-09-15T02:52:19.685Z,16.71
2022-09-15T02:54:46.376Z,16.64
2022-09-15T02:57:14.322Z,16.62
2022-09-15T02:59:59.749Z,16.63
2022-09-15T03:02:26.880Z,16.62
2022-09-15T03:04:53.578Z,16.54
2022-09-15T03:07:20.345Z,16.61
2022-09-15T03:09:47.370Z,16.60
2022-09-15T03:12:14.054Z,16.62
2022-09-15T03:14:40.670Z,16.55
2022-09-15T03:17:07.306Z,16.44
2022-09-15T03:19:33.929Z,16.43
2022-09-15T03:22:00.582Z,16.53
2022-09-15T03:24:27.239Z,16.55
2022-09-15T03:26:53.849Z,16.55
2022-09-15T03:29:20.448Z,16.56
2022-09-15T03:31:47.286Z,16.57
2022-09-15T03:34:13.945Z,16.54
2022-09-15T03:36:41.322Z,16.52
2022-09-15T03:39:08.013Z,16.53
2022-09-15T03:41:34.634Z,16.52
2022-09-15T03:44:01.344Z,16.50
2022-09-15T03:46:28.027Z,16.54
2022-09-15T03:48:54.656Z,16.54
2022-09-15T03:51:21.990Z,16.54
2022-09-15T03:53:49.950Z,16.54
2022-09-15T03:56:24.141Z,16.54
2022-09-15T03:58:51.638Z,16.54
2022-09-15T04:01:19.147Z,16.54
2022-09-15T04:03:50.619Z,16.53
2022-09-15T04:06:19.012Z,16.55
2022-09-15T04:08:45.674Z,16.46
2022-09-15T04:11:13.090Z,16.52
2022-09-15T04:13:40.809Z,16.48
2022-09-15T04:16:09.898Z,16.35
2022-09-15T04:18:36.626Z,16.28
2022-09-15T04:21:06.374Z,16.33
2022-09-15T04:23:33.809Z,16.37
2022-09-15T04:26:06.700Z,16.36
2022-09-15T04:28:35.606Z,16.30
2022-09-15T04:31:10.900Z,16.34
2022-09-15T04:33:39.691Z,16.33
2022-09-15T04:36:11.997Z,16.34
2022-09-15T04:38:38.898Z,16.29
2022-09-15T04:41:06.257Z,16.25
2022-09-15T04:43:33.491Z,16.25
2022-09-15T04:46:00.122Z,16.25
2022-09-15T04:48:27.193Z,16.26
2022-09-15T04:50:54.164Z,16.19
2022-09-15T04:53:20.972Z,16.13
2022-09-15T04:55:47.574Z,16.15
2022-09-15T04:58:14.426Z,16.06
2022-09-15T05:00:43.567Z,16.09
2022-09-15T05:03:11.271Z,15.99
2022-09-15T05:05:38.549Z,16.00
2022-09-15T05:08:05.403Z,16.04
2022-09-15T05:10:32.026Z,16.13
2022-09-15T05:12:58.722Z,16.16
2022-09-15T05:15:25.367Z,16.21
2022-09-15T05:17:52.019Z,16.22
2022-09-15T05:20:18.751Z,16.22
2022-09-15T05:22:45.642Z,16.12
2022-09-15T05:25:12.323Z,16.24
2022-09-15T05:27:39.644Z,16.34
2022-09-15T05:30:32.733Z,16.40
2022-09-15T05:32:54.257Z,16.43
2022-09-15T05:35:20.925Z,16.50
2022-09-15T05:37:47.594Z,16.49
2022-09-15T05:40:15.354Z,16.65
2022-09-15T05:42:42.038Z,16.71
2022-09-15T05:45:09.101Z,16.77
2022-09-15T05:47:35.808Z,16.81
2022-09-15T05:50:02.428Z,16.80
2022-09-15T05:52:29.223Z,16.83
2022-09-15T05:54:58.960Z,16.79
2022-09-15T05:57:25.893Z,16.77
2022-09-15T05:59:52.535Z,16.79
2022-09-15T06:02:19.276Z,16.84
2022-09-15T06:04:45.962Z,16.86
2022-09-15T06:07:13.198Z,16.95
2022-09-15T06:09:39.824Z,16.78
2022-09-15T06:12:06.601Z,16.88
2022-09-15T06:14:33.256Z,16.92
2022-09-15T06:16:59.886Z,16.89
2022-09-15T06:19:26.516Z,16.89
2022-09-15T06:21:54.253Z,16.93
2022-09-15T06:24:21.720Z,16.90
2022-09-15T06:26:48.353Z,16.99
2022-09-15T06:29:15.068Z,17.13
2022-09-15T06:31:41.820Z,17.10
2022-09-15T06:34:09.921Z,17.10
2022-09-15T06:36:37.772Z,17.08
2022-09-15T06:39:05.041Z,17.15
2022-09-15T06:41:47.420Z,17.15
2022-09-15T06:44:21.807Z,17.14
2022-09-15T06:46:49.405Z,17.14
2022-09-15T06:49:16.375Z,17.21
2022-09-15T06:51:43.074Z,17.23
2022-09-15T06:54:09.688Z,17.26
2022-09-15T06:56:38.267Z,17.24
2022-09-15T06:59:05.233Z,17.21
2022-09-15T07:01:32.761Z,17.44
2022-09-15T07:04:01.092Z,17.47
2022-09-15T07:06:29.312Z,17.47
2022-09-15T07:08:56.769Z,17.62
2022-09-15T07:11:23.507Z,17.72
2022-09-15T07:13:50.871Z,17.76
2022-09-15T07:16:19.127Z,17.75
2022-09-15T07:18:46.988Z,18.03
2022-09-15T07:21:16.921Z,18.11
2022-09-15T07:23:43.887Z,18.06
2022-09-15T07:26:12.387Z,18.24
2022-09-15T07:28:39.696Z,18.43
2022-09-15T07:31:07.393Z,18.59
2022-09-15T07:33:34.500Z,18.72
2022-09-15T07:36:08.610Z,18.77
2022-09-15T07:38:38.792Z,18.66
2022-09-15T07:41:13.993Z,18.70
2022-09-15T07:43:44.974Z,18.86
2022-09-15T07:46:11.653Z,18.92
2022-09-15T07:48:38.315Z,18.97
2022-09-15T07:51:05.017Z,19.06
2022-09-15T07:53:31.716Z,19.11
2022-09-15T07:55:58.340Z,19.31
2022-09-15T07:58:25.382Z,19.38
2022-09-15T08:00:52.251Z,19.38
2022-09-15T08:03:19.061Z,19.60
2022-09-15T08:05:46.291Z,19.53
2022-09-15T08:08:13.379Z,19.71
2022-09-15T08:10:41.282Z,19.66
2022-09-15T08:13:08.301Z,19.73
2022-09-15T08:15:37.894Z,19.85
2022-09-15T08:18:05.434Z,19.92
2022-09-15T08:20:32.337Z,20.01
2022-09-15T08:22:59.265Z,20.10
2022-09-15T08:25:26.026Z,19.89
2022-09-15T08:27:54.261Z,19.91
2022-09-15T08:30:21.390Z,19.83
2022-09-15T08:32:48.551Z,19.73
2022-09-15T08:35:16.060Z,19.79
2022-09-15T08:37:42.945Z,19.73
2022-09-15T08:40:18.545Z,19.96
2022-09-15T08:42:47.122Z,19.90
2022-09-15T08:45:48.011Z,19.82
2022-09-15T08:48:16.071Z,19.70
2022-09-15T08:50:45.898Z,19.82
2022-09-15T08:53:16.833Z,19.87
2022-09-15T08:55:43.393Z,19.89
2022-09-15T08:58:15.309Z,19.90
2022-09-15T09:00:42.350Z,19.83
2022-09-15T09:03:25.399Z,19.85
2022-09-15T09:06:19.569Z,19.95
2022-09-15T09:09:03.577Z,19.95
2022-09-15T09:11:35.842Z,20.01
2022-09-15T09:14:08.701Z,20.15
2022-09-15T09:16:58.645Z,20.09
2022-09-15T09:19:53.200Z,20.26
2022-09-15T09:22:34.324Z,20.36
2022-09-15T09:25:11.691Z,20.17
2022-09-15T09:27:43.487Z,20.30
2022-09-15T09:30:15.467Z,20.48
2022-09-15T09:32:46.721Z,20.60
2022-09-15T09:35:38.175Z,20.58
2022-09-15T09:38:04.866Z,20.50
2022-09-15T09:40:32.847Z,20.45
2022-09-15T09:43:01.144Z,20.08
2022-09-15T09:45:27.805Z,20.17
2022-09-15T09:48:01.643Z,20.21
2022-09-15T09:50:43.801Z,20.06
2022-09-15T09:53:26.577Z,19.95
2022-09-15T09:55:55.312Z,19.96
2022-09-15T09:58:25.562Z,20.16
2022-09-15T10:00:53.095Z,20.27
2022-09-15T10:03:21.097Z,20.31
2022-09-15T10:06:07.746Z,20.45
2022-09-15T10:08:36.636Z,20.49
2022-09-15T10:11:10.281Z,20.35
2022-09-15T10:13:50.576Z,20.48
2022-09-15T10:16:18.953Z,20.55
2022-09-15T10:18:45.878Z,20.56
2022-09-15T10:21:14.194Z,20.78
2022-09-15T10:23:40.849Z,20.78
2022-09-15T10:26:16.376Z,20.65
2022-09-15T10:28:43.656Z,20.64
2022-09-15T10:31:11.249Z,20.71
2022-09-15T10:33:42.792Z,20.72
2022-09-15T10:36:15.172Z,20.71
2022-09-15T10:38:47.168Z,20.75
2022-09-15T10:41:35.670Z,20.76
2022-09-15T10:44:09.954Z,20.69
2022-09-15T10:46:55.300Z,20.73
2022-09-15T10:49:46.750Z,21.02
2022-09-15T10:52:35.483Z,21.08
2022-09-15T10:55:42.262Z,21.14
2022-09-15T10:58:50.094Z,21.30
2022-09-15T11:01:32.385Z,21.37
2022-09-15T11:04:20.814Z,21.29
2022-09-15T11:07:08.714Z,21.19
2022-09-15T11:10:08.907Z,21.13
2022-09-15T11:13:00.823Z,21.03
2022-09-15T11:15:37.376Z,21.14
2022-09-15T11:18:14.142Z,21.45
2022-09-15T11:20:52.595Z,21.65
2022-09-15T11:23:24.547Z,21.81
2022-09-15T11:25:57.397Z,21.64
2022-09-15T11:28:33.955Z,21.47
2022-09-15T11:31:04.621Z,21.67
2022-09-15T11:33:40.229Z,21.72
2022-09-15T11:36:11.298Z,21.19
2022-09-15T11:38:49.196Z,21.15
2022-09-15T11:41:24.616Z,21.28
2022-09-15T11:44:01.899Z,21.18
2022-09-15T11:46:37.673Z,21.05
2022-09-15T11:49:12.222Z,21.00
2022-09-15T11:51:44.584Z,20.83
2022-09-15T11:54:17.507Z,20.88
2022-09-15T11:56:45.477Z,21.08
2022-09-15T11:59:22.369Z,21.28
2022-09-15T12:01:53.792Z,21.33
2022-09-15T12:04:27.479Z,21.26
2022-09-15T12:07:04.671Z,21.15
2022-09-15T12:09:31.594Z,21.21
2022-09-15T12:12:01.974Z,21.28
2022-09-15T12:14:33.100Z,21.51
2022-09-15T12:17:00.090Z,21.61
2022-09-15T12:20:00.342Z,21.64
2022-09-15T12:22:32.130Z,21.71
2022-09-15T12:25:06.710Z,21.73
2022-09-15T12:27:33.465Z,21.62
2022-09-15T12:30:00.651Z,21.60
2022-09-15T12:32:35.187Z,21.60
2022-09-15T12:35:04.523Z,21.60
2022-09-15T12:37:35.712Z,21.54
2022-09-15T12:40:05.881Z,21.49
2022-09-15T12:42:34.725Z,21.46
2022-09-15T12:45:12.089Z,21.42
2022-09-15T12:47:49.225Z,21.18
2022-09-15T12:50:15.813Z,21.24
2022-09-15T12:53:14.523Z,21.09
2022-09-15T12:55:58.583Z,21.09
2022-09-15T12:58:39.444Z,21.09
2022-09-15T13:01:34.979Z,21.00
2022-09-15T13:04:05.017Z,21.04
2022-09-15T13:06:35.774Z,21.05
2022-09-15T13:09:02.343Z,21.05
2022-09-15T13:11:37.401Z,21.04
2022-09-15T13:14:04.606Z,21.03
2022-09-15T13:16:32.949Z,20.98
2022-09-15T13:19:26.383Z,20.92
2022-09-15T13:22:11.888Z,20.90
2022-09-15T13:25:15.894Z,20.75
2022-09-15T13:27:48.144Z,20.66
2022-09-15T13:30:20.694Z,20.61
2022-09-15T13:32:59.293Z,20.32
2022-09-15T13:35:31.549Z,20.29
2022-09-15T13:38:35.991Z,20.20
2022-09-15T13:41:33.285Z,20.20
2022-09-15T13:44:20.966Z,20.06
2022-09-15T13:47:02.710Z,19.96
2022-09-15T13:49:29.849Z,20.01
2022-09-15T13:52:03.602Z,19.88
2022-09-15T13:54:30.396Z,19.83
2022-09-15T13:57:00.607Z,19.82
2022-09-15T13:59:31.759Z,19.90
2022-09-15T14:01:59.447Z,19.96
2022-09-15T14:04:32.342Z,19.90
2022-09-15T14:07:01.311Z,19.88
2022-09-15T14:09:31.726Z,19.86
2022-09-15T14:12:02.451Z,19.91
2022-09-15T14:14:54.156Z,19.92
2022-09-15T14:17:26.583Z,19.84
2022-09-15T14:19:55.183Z,19.91
2022-09-15T14:22:28.865Z,19.93
2022-09-15T14:25:06.142Z,19.91
2022-09-15T14:27:34.777Z,19.99
2022-09-15T14:30:04.174Z,20.03
2022-09-15T14:32:34.804Z,20.04
2022-09-15T14:35:05.727Z,19.96
2022-09-15T14:37:32.703Z,19.88
2022-09-15T14:40:00.586Z,19.92
2022-09-15T14:42:35.614Z,19.99
2022-09-15T14:48:01.528Z,20.20
2022-09-15T14:50:32.538Z,19.90
2022-09-15T14:53:08.483Z,19.93
2022-09-15T14:56:00.582Z,19.88
2022-09-15T14:58:33.200Z,19.84
2022-09-15T15:01:13.959Z,19.90
2022-09-15T15:03:52.954Z,19.63
2022-09-15T15:06:30.499Z,19.42
2022-09-15T15:09:18.010Z,19.43
2022-09-15T15:11:44.770Z,19.04
2022-09-15T15:14:12.666Z,18.93
2022-09-15T15:16:50.891Z,18.82
2022-09-15T15:19:40.221Z,18.82
2022-09-15T15:22:12.904Z,18.73
2022-09-15T15:24:51.302Z,18.63
2022-09-15T15:27:40.740Z,18.66
2022-09-15T15:30:29.716Z,18.48
2022-09-15T15:32:58.976Z,18.17
2022-09-15T15:35:25.952Z,18.15
2022-09-15T15:38:04.851Z,18.24
2022-09-15T15:40:31.544Z,18.19
2022-09-15T15:43:04.936Z,18.15
2022-09-15T15:45:36.378Z,18.09
2022-09-15T15:48:04.972Z,18.12
2022-09-15T15:50:34.404Z,18.10
2022-09-15T15:53:03.056Z,17.93
2022-09-15T15:55:42.815Z,17.89
2022-09-15T15:58:11.538Z,17.91
2022-09-15T16:00:46.716Z,17.99
2022-09-15T16:03:14.653Z,17.98
2022-09-15T16:05:44.807Z,17.85
2022-09-15T16:08:15.845Z,17.79
2022-09-15T16:10:45.063Z,17.56
2022-09-15T16:13:17.263Z,17.65
2022-09-15T16:15:44.314Z,17.63
2022-09-15T16:18:11.530Z,17.51
2022-09-15T16:20:38.560Z,17.30
2022-09-15T16:23:09.963Z,17.29
2022-09-15T16:25:45.950Z,17.38
2022-09-15T16:28:13.021Z,17.44
2022-09-15T16:30:39.677Z,17.41
2022-09-15T16:33:06.382Z,17.30
2022-09-15T16:36:08.801Z,17.34
2022-09-15T16:38:36.404Z,17.14
2022-09-15T16:41:03.964Z,17.18
2022-09-15T16:43:30.737Z,17.06
2022-09-15T16:45:57.583Z,17.19
2022-09-15T16:48:24.404Z,17.16
2022-09-15T16:51:16.843Z,17.26
2022-09-15T16:53:39.548Z,17.32
2022-09-15T16:56:07.409Z,17.34
2022-09-15T16:58:34.471Z,17.34
2022-09-15T17:01:01.257Z,17.35
2022-09-15T17:03:28.266Z,17.37
2022-09-15T17:05:57.611Z,17.45
2022-09-15T17:08:27.405Z,17.46
2022-09-15T17:10:56.138Z,17.40
2022-09-15T17:13:26.459Z,17.34
2022-09-15T17:15:56.219Z,17.29
2022-09-15T17:18:23.357Z,17.29
2022-09-15T17:20:50.770Z,17.23
2022-09-15T17:23:28.743Z,17.27
2022-09-15T17:25:59.107Z,17.17
2022-09-15T17:28:31.811Z,17.20
2022-09-15T17:31:00.353Z,17.19
2022-09-15T17:33:28.466Z,17.12
2022-09-15T17:35:55.203Z,17.14
2022-09-15T17:38:22.326Z,17.15
2022-09-15T17:40:50.003Z,17.17
2022-09-15T17:43:18.773Z,17.15
2022-09-15T17:45:46.273Z,17.07
2022-09-15T17:48:13.062Z,17.04
2022-09-15T17:50:41.893Z,16.83
2022-09-15T17:53:23.702Z,16.75
2022-09-15T17:55:50.813Z,16.60
2022-09-15T17:58:18.820Z,16.63
2022-09-15T18:00:46.056Z,16.63
2022-09-15T18:03:33.384Z,16.58
2022-09-15T18:06:03.798Z,16.53
2022-09-15T18:08:31.748Z,16.42
2022-09-15T18:10:59.198Z,16.36
2022-09-15T18:13:27.449Z,16.36
2022-09-15T18:15:55.098Z,16.29
2022-09-15T18:18:24.050Z,16.20
2022-09-15T18:20:51.894Z,16.12
2022-09-15T18:23:20.774Z,16.03
2022-09-15T18:25:48.005Z,15.96
2022-09-15T18:28:16.006Z,15.89
2022-09-15T18:30:44.822Z,15.78
2022-09-15T18:33:15.278Z,15.68
2022-09-15T18:35:42.517Z,15.58
2022-09-15T18:38:09.325Z,15.45
2022-09-15T18:40:36.237Z,15.47
2022-09-15T18:43:03.325Z,15.39
2022-09-15T18:45:30.011Z,15.31
2022-09-15T18:47:59.562Z,15.21
2022-09-15T18:50:26.650Z,15.22
2022-09-15T18:52:53.410Z,15.09
2022-09-15T18:55:21.892Z,15.09
2022-09-15T18:57:49.218Z,15.02
2022-09-15T19:00:18.369Z,14.97
2022-09-15T19:02:45.027Z,14.90
2022-09-15T19:05:12.357Z,14.78
2022-09-15T19:07:39.234Z,14.74
2022-09-15T19:10:07.250Z,14.60
2022-09-15T19:12:35.362Z,14.63
2022-09-15T19:15:02.553Z,14.60
2022-09-15T19:17:29.225Z,14.55
2022-09-15T19:19:55.938Z,14.55
2022-09-15T19:22:22.647Z,14.49
2022-09-15T19:24:49.610Z,14.47
2022-09-15T19:27:16.301Z,14.43
2022-09-15T19:29:42.983Z,14.38
2022-09-15T19:32:12.800Z,14.35
2022-09-15T19:34:41.968Z,14.26
2022-09-15T19:37:13.162Z,14.23
2022-09-15T19:39:43.489Z,13.91
2022-09-15T19:42:11.357Z,13.71
2022-09-15T19:44:38.243Z,13.66
2022-09-15T19:47:04.897Z,13.72
2022-09-15T19:49:31.601Z,13.76
2022-09-15T19:51:58.301Z,13.60
2022-09-15T19:54:29.858Z,13.36
2022-09-15T19:56:56.841Z,13.45
2022-09-15T19:59:27.391Z,13.47
2022-09-15T20:01:57.079Z,13.51
2022-09-15T20:04:23.757Z,13.55
2022-09-15T20:06:50.536Z,13.43
2022-09-15T20:09:17.698Z,13.19
2022-09-15T20:11:44.457Z,13.32
2022-09-15T20:14:11.237Z,13.41
2022-09-15T20:16:38.041Z,13.49
2022-09-15T20:19:05.095Z,13.55
2022-09-15T20:21:51.197Z,13.57
2022-09-15T20:24:19.141Z,13.60
2022-09-15T20:26:45.867Z,13.33
2022-09-15T20:29:12.789Z,13.26
2022-09-15T20:31:39.426Z,13.26
2022-09-15T20:34:06.081Z,13.18
2022-09-15T20:36:36.186Z,13.12
2022-09-15T20:39:04.991Z,13.14
2022-09-15T20:41:34.497Z,13.16
2022-09-15T20:44:01.254Z,13.17
2022-09-15T20:46:31.512Z,13.13
2022-09-15T20:48:58.149Z,13.16
2022-09-15T20:51:27.941Z,13.20
2022-09-15T20:53:56.013Z,13.15
2022-09-15T20:56:25.768Z,13.04
2022-09-15T20:58:57.215Z,12.94
2022-09-15T21:01:34.122Z,12.83
2022-09-15T21:04:01.127Z,12.77
2022-09-15T21:06:28.444Z,12.71
2022-09-15T21:08:58.696Z,12.73
2022-09-15T21:11:26.752Z,12.79
2022-09-15T21:13:54.370Z,12.82
2022-09-15T21:16:23.363Z,12.87
2022-09-15T21:18:50.865Z,12.89
2022-09-15T21:21:29.925Z,12.89
2022-09-15T21:24:00.409Z,12.86
2022-09-15T21:26:28.977Z,12.74
2022-09-15T21:28:56.235Z,12.64
2022-09-15T21:31:33.280Z,12.71
2022-09-15T21:33:59.976Z,12.61
2022-09-15T21:36:31.123Z,12.68
2022-09-15T21:38:58.925Z,12.54
2022-09-15T21:41:28.438Z,12.51
2022-09-15T21:43:55.596Z,12.63
2022-09-15T21:46:24.328Z,12.60
2022-09-15T21:48:51.156Z,12.61
2022-09-15T21:51:23.496Z,12.63
2022-09-15T21:53:55.533Z,12.63
2022-09-15T21:56:22.695Z,12.62
2022-09-15T21:58:49.385Z,12.62
2022-09-15T22:01:20.083Z,12.62
2022-09-15T22:03:58.548Z,12.60
2022-09-15T22:06:30.291Z,12.60
2022-09-15T22:09:00.560Z,12.61
2022-09-15T22:11:27.546Z,12.57
2022-09-15T22:13:54.310Z,12.57
2022-09-15T22:16:22.269Z,12.58
2022-09-15T22:18:49.310Z,12.49
2022-09-15T22:21:23.191Z,12.51
2022-09-15T22:23:50.914Z,12.43
2022-09-15T22:26:26.314Z,12.35
2022-09-15T22:28:53.926Z,12.11
2022-09-15T22:31:21.617Z,11.92
2022-09-15T22:33:49.306Z,11.96
2022-09-15T22:36:18.717Z,12.00
2022-09-15T22:38:45.673Z,12.02
2022-09-15T22:41:14.117Z,12.07
2022-09-15T22:43:43.771Z,12.08
2022-09-15T22:46:11.025Z,11.90
2022-09-15T22:48:43.166Z,11.85
2022-09-15T22:51:10.736Z,11.86
2022-09-15T22:53:37.424Z,11.79
2022-09-15T22:56:23.306Z,11.73
2022-09-15T22:58:50.215Z,11.79
2022-09-15T23:01:21.516Z,11.70
2022-09-15T23:03:55.878Z,11.72
2022-09-15T23:06:23.722Z,11.55
2022-09-15T23:09:00.997Z,11.40
2022-09-15T23:11:29.249Z,11.42
2022-09-15T23:13:56.464Z,11.40
2022-09-15T23:16:24.336Z,11.49
2022-09-15T23:18:51.725Z,11.54
2022-09-15T23:21:18.640Z,11.57
2022-09-15T23:23:46.295Z,11.61
2022-09-15T23:26:13.677Z,11.59
2022-09-15T23:28:40.826Z,11.59
2022-09-15T23:31:08.781Z,11.63
2022-09-15T23:33:35.645Z,11.60
2022-09-15T23:36:03.457Z,11.60
2022-09-15T23:38:30.608Z,11.60
2022-09-15T23:40:57.435Z,11.58
2022-09-15T23:43:24.570Z,11.45
2022-09-15T23:45:51.395Z,11.42
2022-09-15T23:48:18.192Z,11.34
2022-09-15T23:50:45.012Z,11.18
2022-09-15T23:53:11.751Z,11.02
2022-09-15T23:55:38.469Z,11.10
2022-09-15T23:58:06.147Z,11.19
